createdAt,value
2023-01-11T00:00:08.523Z,100350.16
2023-01-11T00:02:46.247Z,100422.41
2023-01-11T00:05:13.082Z,100443.84
2023-01-11T00:07:41.027Z,100421.81
2023-01-11T00:10:09.109Z,100442.19
2023-01-11T00:12:36.002Z,100444.34
2023-01-11T00:15:02.814Z,100411.31
2023-01-11T00:17:33.617Z,100440.97
2023-01-11T00:20:19.209Z,100331.69
2023-01-11T00:22:46.326Z,100357.53
2023-01-11T00:25:23.293Z,100358.53
2023-01-11T00:54:52.542Z,100310.75
2023-01-11T00:57:19.815Z,100304.09
2023-01-11T00:59:49.407Z,100304.56
2023-01-11T01:02:50.903Z,100355.91
2023-01-11T01:05:32.786Z,100326.25
2023-01-11T01:07:59.569Z,100340.28
2023-01-11T01:10:30.037Z,100365.69
2023-01-11T01:13:21.350Z,100351.66
2023-01-11T01:16:36.368Z,100352.66
2023-01-11T01:19:03.851Z,100318.91
2023-01-11T01:21:30.670Z,100330.81
2023-01-11T01:24:00.898Z,100367.69
2023-01-11T01:26:36.864Z,100284.72
2023-01-11T01:29:18.838Z,100314.88
2023-01-11T01:31:48.180Z,100322.88
2023-01-11T01:34:18.767Z,100300.53
2023-01-11T01:36:46.942Z,100288.34
2023-01-11T01:39:13.837Z,100328.09
2023-01-11T01:41:40.625Z,100353.50
2023-01-11T01:44:44.834Z,100368.97
2023-01-11T01:47:12.683Z,100357.56
2023-01-11T01:49:40.838Z,100336.69
2023-01-11T01:52:10.401Z,100345.81
2023-01-11T01:54:40.726Z,100350.41
2023-01-11T01:57:14.135Z,100337.47
2023-01-11T01:59:42.028Z,100326.91
2023-01-11T02:02:09.076Z,100336.53
2023-01-11T02:04:40.236Z,100340.59
2023-01-11T02:07:40.619Z,100311.59
2023-01-11T02:10:09.602Z,100284.22
2023-01-11T02:12:42.130Z,100324.94
2023-01-11T02:15:11.024Z,100324.59
2023-01-11T02:17:38.018Z,100313.06
2023-01-11T02:20:14.169Z,100335.66
2023-01-11T02:22:52.558Z,100326.22
2023-01-11T02:25:31.992Z,100319.88
2023-01-11T02:28:08.956Z,100274.16
2023-01-11T02:30:57.724Z,100317.78
2023-01-11T02:33:39.436Z,100302.47
2023-01-11T02:36:44.725Z,100294.03
2023-01-11T02:39:28.882Z,100281.78
2023-01-11T02:42:30.118Z,100305.84
2023-01-11T02:45:02.526Z,100278.50
2023-01-11T02:47:44.815Z,100249.66
2023-01-11T02:50:33.192Z,100264.13
2023-01-11T02:53:15.223Z,100280.06
2023-01-11T02:55:48.449Z,100256.69
2023-01-11T02:58:18.195Z,100310.75
2023-01-11T03:00:46.650Z,100302.91
2023-01-11T03:03:17.976Z,100305.16
2023-01-11T03:05:52.778Z,100294.22
2023-01-11T03:08:52.160Z,100289.50
2023-01-11T03:11:49.483Z,100266.44
2023-01-11T03:14:28.793Z,100294.44
2023-01-11T03:17:18.365Z,100278.78
2023-01-11T03:19:54.269Z,100266.25
2023-01-11T03:22:40.103Z,100289.38
2023-01-11T03:25:17.957Z,100229.63
2023-01-11T03:28:02.824Z,100267.84
2023-01-11T03:30:43.161Z,100254.00
2023-01-11T03:33:20.640Z,100276.63
2023-01-11T03:35:55.868Z,100266.03
2023-01-11T03:38:33.189Z,100286.41
2023-01-11T03:41:12.184Z,100285.78
2023-01-11T03:43:44.063Z,100275.66
2023-01-11T03:46:15.523Z,100264.72
2023-01-11T03:48:52.443Z,100280.53
2023-01-11T03:51:24.965Z,100273.34
2023-01-11T03:53:52.919Z,100274.66
2023-01-11T03:56:25.300Z,100276.44
2023-01-11T03:58:51.997Z,100263.72
2023-01-11T04:01:18.819Z,100271.88
2023-01-11T04:03:45.434Z,100250.03
2023-01-11T04:06:12.613Z,100252.31
2023-01-11T04:08:39.267Z,100255.56
2023-01-11T04:11:05.975Z,100265.97
2023-01-11T04:13:34.126Z,100240.91
2023-01-11T04:16:01.099Z,100244.09
2023-01-11T04:18:28.303Z,100258.81
2023-01-11T04:20:55.171Z,100259.44
2023-01-11T04:23:21.984Z,100247.38
2023-01-11T04:25:48.906Z,100261.22
2023-01-11T04:28:15.730Z,100244.78
2023-01-11T04:30:42.368Z,100265.13
2023-01-11T04:33:10.936Z,100266.56
2023-01-11T04:35:37.584Z,100284.19
2023-01-11T04:38:04.344Z,100257.31
2023-01-11T04:40:31.176Z,100264.31
2023-01-11T04:43:02.292Z,100278.44
2023-01-11T04:45:29.977Z,100265.22
2023-01-11T04:47:58.058Z,100264.44
2023-01-11T04:50:26.020Z,100268.16
2023-01-11T04:52:53.123Z,100270.63
2023-01-11T04:55:20.997Z,100247.34
2023-01-11T04:57:47.781Z,100252.84
2023-01-11T05:00:16.030Z,100269.28
2023-01-11T05:02:42.809Z,100270.91
2023-01-11T05:05:10.664Z,100267.19
2023-01-11T05:07:38.981Z,100272.22
2023-01-11T05:10:06.415Z,100262.78
2023-01-11T05:15:17.082Z,100267.16
2023-01-11T05:17:49.995Z,100153.28
2023-01-11T05:20:19.449Z,100113.63
2023-01-11T05:22:46.224Z,100153.25
2023-01-11T05:25:13.188Z,100222.56
2023-01-11T05:27:41.294Z,100120.63
2023-01-11T05:30:08.819Z,100225.78
2023-01-11T05:32:36.798Z,100255.19
2023-01-11T05:35:03.882Z,100129.72
2023-01-11T05:37:32.684Z,100095.75
2023-01-11T05:39:59.535Z,100157.34
2023-01-11T05:42:32.136Z,100235.38
2023-01-11T05:45:17.439Z,100116.34
2023-01-11T05:47:44.280Z,100271.28
2023-01-11T05:50:11.283Z,100257.09
2023-01-11T05:52:37.908Z,100239.09
2023-01-11T05:55:05.068Z,100252.34
2023-01-11T05:57:31.757Z,100277.78
2023-01-11T05:59:58.601Z,100253.97
2023-01-11T06:02:25.511Z,100243.81
2023-01-11T06:04:52.204Z,100221.53
2023-01-11T06:07:18.801Z,100232.22
2023-01-11T06:09:45.563Z,100257.09
2023-01-11T06:12:12.465Z,100256.75
2023-01-11T06:14:41.263Z,100263.59
2023-01-11T06:17:08.133Z,100262.47
2023-01-11T06:19:34.836Z,100256.75
2023-01-11T06:22:01.756Z,100243.56
2023-01-11T06:29:30.837Z,100281.78
2023-01-11T06:31:58.436Z,100283.59
2023-01-11T06:34:25.179Z,100259.50
2023-01-11T06:36:51.998Z,100275.00
2023-01-11T06:39:19.306Z,100278.41
2023-01-11T06:41:45.962Z,100294.50
2023-01-11T06:44:12.802Z,100293.03
2023-01-11T06:46:39.679Z,100276.63
2023-01-11T06:49:06.352Z,100292.19
2023-01-11T06:51:33.175Z,100259.03
2023-01-11T06:53:59.776Z,100296.78
2023-01-11T06:56:26.481Z,100299.03
2023-01-11T06:58:53.242Z,100291.91
2023-01-11T07:01:20.205Z,100300.66
2023-01-11T07:03:46.971Z,100296.50
2023-01-11T07:06:14.241Z,100289.63
2023-01-11T07:08:40.841Z,100284.44
2023-01-11T07:11:09.099Z,100298.06
2023-01-11T07:13:35.949Z,100291.44
2023-01-11T07:16:02.583Z,100299.75
2023-01-11T07:18:31.754Z,100315.19
2023-01-11T07:20:58.483Z,100323.66
2023-01-11T07:23:25.156Z,100324.19
2023-01-11T07:25:51.892Z,100323.53
2023-01-11T07:28:18.641Z,100302.69
2023-01-11T07:30:57.280Z,100333.31
2023-01-11T07:33:25.312Z,100342.13
2023-01-11T07:35:52.037Z,100331.66
2023-01-11T07:38:18.690Z,100317.84
2023-01-11T07:40:45.599Z,100334.94
2023-01-11T07:43:18.328Z,100340.16
2023-01-11T07:45:49.816Z,100326.34
2023-01-11T07:48:27.102Z,100340.84
2023-01-11T07:50:54.939Z,100327.41
2023-01-11T07:53:22.244Z,100346.22
2023-01-11T07:55:48.868Z,100346.69
2023-01-11T07:58:16.256Z,100339.03
2023-01-11T08:00:43.441Z,100325.81
2023-01-11T08:03:10.606Z,100355.16
2023-01-11T08:05:38.038Z,100354.72
2023-01-11T08:08:05.324Z,100356.19
2023-01-11T08:10:32.033Z,100353.88
2023-01-11T08:13:17.761Z,100367.25
2023-01-11T08:15:44.602Z,100363.97
2023-01-11T08:18:12.500Z,100330.53
2023-01-11T08:20:40.123Z,100383.75
2023-01-11T08:23:09.041Z,100341.84
2023-01-11T08:25:35.775Z,100313.47
2023-01-11T08:28:04.822Z,100353.47
2023-01-11T08:30:32.304Z,100362.31
2023-01-11T08:33:01.928Z,100332.25
2023-01-11T08:38:12.689Z,100280.94
2023-01-11T08:40:42.439Z,100234.56
2023-01-11T08:45:46.762Z,100278.94
2023-01-11T08:48:22.706Z,100331.44
2023-01-11T08:50:49.669Z,100325.31
2023-01-11T08:55:56.647Z,100382.56
2023-01-11T08:58:24.640Z,100260.72
2023-01-11T09:03:34.140Z,100249.50
2023-01-11T09:06:01.216Z,100330.00
2023-01-11T09:08:36.687Z,100347.19
2023-01-11T09:11:26.284Z,100208.00
2023-01-11T09:13:53.032Z,100333.44
2023-01-11T09:16:19.842Z,100357.91
2023-01-11T09:18:46.558Z,100393.78
2023-01-11T09:21:13.234Z,100464.78
2023-01-11T09:23:40.032Z,100464.47
2023-01-11T09:26:06.767Z,100476.34
2023-01-11T09:28:33.531Z,100469.94
2023-01-11T09:31:00.275Z,100457.03
2023-01-11T09:36:03.193Z,100325.75
2023-01-11T09:38:31.019Z,100464.59
2023-01-11T09:41:23.356Z,100473.44
2023-01-11T09:46:30.040Z,100297.19
2023-01-11T09:48:59.761Z,100486.75
2023-01-11T09:51:35.888Z,100363.84
2023-01-11T09:54:06.054Z,100391.88
2023-01-11T09:59:25.856Z,100429.78
2023-01-11T10:04:36.923Z,100501.25
2023-01-11T10:07:28.138Z,100501.88
2023-01-11T10:18:25.676Z,100520.66
2023-01-11T10:19:39.508Z,100512.91
2023-01-11T10:22:23.600Z,100528.88
2023-01-11T10:25:00.558Z,100502.19
2023-01-11T10:27:35.772Z,100535.44
2023-01-11T10:30:33.478Z,100506.47
2023-01-11T10:33:38.136Z,100537.75
2023-01-11T10:36:45.065Z,100536.16
2023-01-11T10:39:46.745Z,100524.41
2023-01-11T10:42:28.878Z,100546.47
2023-01-11T10:45:13.214Z,100541.78
2023-01-11T10:47:51.306Z,100509.97
2023-01-11T10:50:35.062Z,100542.44
2023-01-11T10:53:17.128Z,100541.47
2023-01-11T10:55:46.611Z,100544.28
2023-01-11T10:58:28.464Z,100554.88
2023-01-11T11:01:27.228Z,100542.00
2023-01-11T11:04:02.905Z,100549.03
2023-01-11T11:06:50.001Z,100555.00
2023-01-11T11:09:22.946Z,100546.78
2023-01-11T11:12:04.404Z,100555.78
2023-01-11T11:14:42.292Z,100546.78
2023-01-11T11:17:47.376Z,100570.28
2023-01-11T11:20:17.310Z,100559.34
2023-01-11T11:22:45.209Z,100546.69
2023-01-11T11:25:23.292Z,100548.91
2023-01-11T11:47:20.748Z,100370.75
2023-01-11T11:58:02.665Z,100486.19
2023-01-11T12:24:39.646Z,100595.31
2023-01-11T12:27:32.445Z,100603.66
2023-01-11T12:30:20.816Z,100598.56
2023-01-11T12:33:05.626Z,100591.03
2023-01-11T12:35:50.106Z,100591.69
2023-01-11T12:38:31.634Z,100572.84
2023-01-11T12:41:42.828Z,100598.22
2023-01-11T12:44:41.642Z,100603.34
2023-01-11T12:47:15.720Z,100593.88
2023-01-11T12:49:57.511Z,100591.03
2023-01-11T12:52:56.785Z,100606.66
2023-01-11T12:55:34.389Z,100610.97
2023-01-11T12:58:14.144Z,100612.34
2023-01-11T13:01:07.266Z,100640.00
2023-01-11T13:04:11.890Z,100611.84
2023-01-11T13:07:00.101Z,100620.66
2023-01-11T13:09:48.655Z,100614.00
2023-01-11T13:12:21.208Z,100618.88
2023-01-11T13:15:17.431Z,100612.16
2023-01-11T13:17:53.142Z,100634.47
2023-01-11T13:20:37.134Z,100607.22
2023-01-11T13:23:44.474Z,100629.22
2023-01-11T13:26:11.259Z,100620.22
2023-01-11T13:28:43.664Z,100621.44
2023-01-11T13:31:13.918Z,100592.66
2023-01-11T13:33:47.812Z,100622.22
2023-01-11T13:36:23.703Z,100623.84
2023-01-11T13:38:53.985Z,100621.78
2023-01-11T13:41:23.939Z,100618.69
2023-01-11T13:44:04.387Z,100619.56
2023-01-11T13:46:51.799Z,100642.66
2023-01-11T13:49:53.872Z,100647.19
2023-01-11T13:52:25.279Z,100644.91
2023-01-11T13:55:11.202Z,100639.13
2023-01-11T13:57:56.013Z,100623.53
2023-01-11T14:00:30.687Z,100625.06
2023-01-11T14:03:26.786Z,100628.81
2023-01-11T14:05:59.516Z,100650.09
2023-01-11T14:08:52.234Z,100670.22
2023-01-11T14:11:37.949Z,100640.31
2023-01-11T14:14:24.086Z,100658.47
2023-01-11T14:16:50.675Z,100661.75
2023-01-11T14:19:17.258Z,100678.38
2023-01-11T14:21:53.970Z,100675.38
2023-01-11T14:24:23.180Z,100691.59
2023-01-11T14:27:12.544Z,100687.91
2023-01-11T14:30:35.238Z,100672.25
2023-01-11T14:33:31.242Z,100695.50
2023-01-11T14:36:25.822Z,100684.75
2023-01-11T14:39:11.455Z,100684.44
2023-01-11T14:42:29.282Z,100692.94
2023-01-11T14:45:03.329Z,100684.28
2023-01-11T14:47:47.704Z,100650.50
2023-01-11T14:50:30.064Z,100681.03
2023-01-11T14:53:00.302Z,100645.59
2023-01-11T14:55:37.453Z,100689.31
2023-01-11T14:58:25.239Z,100679.66
2023-01-11T15:00:55.130Z,100681.78
2023-01-11T15:03:21.727Z,100685.56
2023-01-11T15:06:18.936Z,100690.81
2023-01-11T15:08:49.094Z,100689.88
2023-01-11T15:11:23.321Z,100681.06
2023-01-11T15:14:22.325Z,100696.41
2023-01-11T15:17:12.422Z,100700.47
2023-01-11T15:19:42.335Z,100693.50
2023-01-11T15:22:23.565Z,100683.03
2023-01-11T15:24:58.384Z,100688.91
2023-01-11T15:27:31.169Z,100697.91
2023-01-11T15:29:58.375Z,100690.69
2023-01-11T15:32:26.297Z,100690.56
2023-01-11T15:35:22.414Z,100686.28
2023-01-11T15:38:04.692Z,100702.28
2023-01-11T15:40:54.471Z,100710.06
2023-01-11T15:43:51.153Z,100641.75
2023-01-11T15:46:45.629Z,100697.63
2023-01-11T15:49:38.038Z,100699.22
2023-01-11T15:52:19.824Z,100703.31
2023-01-11T15:54:52.466Z,100700.81
2023-01-11T15:57:26.266Z,100701.28
2023-01-11T16:00:30.745Z,100695.75
2023-01-11T16:02:57.427Z,100700.13
2023-01-11T16:05:27.886Z,100707.25
2023-01-11T16:08:15.442Z,100709.22
2023-01-11T16:10:51.903Z,100709.81
2023-01-11T16:13:48.940Z,100715.69
2023-01-11T16:16:29.282Z,100706.66
2023-01-11T16:19:12.781Z,100712.03
2023-01-11T16:21:42.339Z,100707.75
2023-01-11T16:24:15.360Z,100730.06
2023-01-11T16:26:42.396Z,100713.91
2023-01-11T16:29:19.693Z,100707.66
2023-01-11T16:31:58.594Z,100726.41
2023-01-11T16:34:27.199Z,100725.44
2023-01-11T16:36:53.851Z,100697.69
2023-01-11T16:39:24.421Z,100716.44
2023-01-11T16:42:06.372Z,100728.25
2023-01-11T16:44:41.235Z,100734.28
2023-01-11T16:47:14.285Z,100731.53
2023-01-11T16:49:43.385Z,100697.78
2023-01-11T16:54:45.590Z,100574.28
2023-01-11T17:00:18.959Z,100705.56
2023-01-11T17:02:48.933Z,100700.72
2023-01-11T17:05:21.824Z,100732.78
2023-01-11T17:07:48.558Z,100734.22
2023-01-11T17:10:28.090Z,100738.44
2023-01-11T17:13:46.512Z,100744.47
2023-01-11T17:16:17.460Z,100737.63
2023-01-11T17:18:44.371Z,100740.25
2023-01-11T17:21:28.701Z,100736.81
2023-01-11T17:24:00.438Z,100734.34
2023-01-11T17:26:34.618Z,100729.75
2023-01-11T17:29:01.624Z,100749.00
2023-01-11T17:31:32.077Z,100746.00
2023-01-11T17:34:21.746Z,100739.19
2023-01-11T17:36:48.911Z,100750.63
2023-01-11T17:39:26.706Z,100745.00
2023-01-11T17:42:12.189Z,100748.13
2023-01-11T17:44:59.208Z,100742.41
2023-01-11T17:47:26.557Z,100735.84
2023-01-11T17:49:56.037Z,100736.78
2023-01-11T17:52:24.850Z,100731.31
2023-01-11T17:55:14.753Z,100735.66
2023-01-11T17:57:41.526Z,100734.97
2023-01-11T18:00:28.929Z,100748.44
2023-01-11T18:02:58.010Z,100735.97
2023-01-11T18:05:29.724Z,100743.22
2023-01-11T18:07:58.235Z,100748.66
2023-01-11T18:10:28.531Z,100754.22
2023-01-11T18:12:58.047Z,100755.09
2023-01-11T18:15:24.713Z,100741.88
2023-01-11T18:17:57.135Z,100734.75
2023-01-11T18:20:29.551Z,100744.88
2023-01-11T18:23:00.029Z,100735.31
2023-01-11T18:25:29.641Z,100732.09
2023-01-11T18:28:11.601Z,100728.84
2023-01-11T18:30:39.585Z,100735.59
2023-01-11T18:33:22.705Z,100728.41
2023-01-11T18:35:59.448Z,100727.44
2023-01-11T18:38:28.780Z,100739.97
2023-01-11T18:40:57.299Z,100718.13
2023-01-11T18:43:32.132Z,100728.75
2023-01-11T18:45:58.817Z,100710.47
2023-01-11T18:48:25.483Z,100720.13
2023-01-11T18:50:54.608Z,100711.66
2023-01-11T18:53:23.717Z,100732.03
2023-01-11T18:55:50.398Z,100718.97
2023-01-11T18:58:17.171Z,100714.88
2023-01-11T19:00:44.051Z,100726.47
2023-01-11T19:03:12.816Z,100707.06
2023-01-11T19:05:40.292Z,100691.97
2023-01-11T19:08:07.828Z,100710.63
2023-01-11T19:10:34.914Z,100712.78
2023-01-11T19:13:03.448Z,100692.03
2023-01-11T19:15:30.237Z,100705.13
2023-01-11T19:17:57.050Z,100700.22
2023-01-11T19:20:23.868Z,100701.22
2023-01-11T19:22:50.553Z,100688.63
2023-01-11T19:25:17.556Z,100686.63
2023-01-11T19:27:44.636Z,100680.28
2023-01-11T19:30:12.520Z,100692.53
2023-01-11T19:32:39.201Z,100696.13
2023-01-11T19:35:09.391Z,100676.84
2023-01-11T19:37:37.767Z,100684.72
2023-01-11T19:40:06.584Z,100685.84
2023-01-11T19:42:33.269Z,100672.63
2023-01-11T19:45:00.003Z,100659.28
2023-01-11T19:47:26.798Z,100668.22
2023-01-11T19:49:56.564Z,100662.69
2023-01-11T19:52:23.252Z,100663.19
2023-01-11T19:54:49.924Z,100648.84
2023-01-11T19:57:19.232Z,100632.53
2023-01-11T19:59:47.069Z,100663.19
2023-01-11T20:02:15.946Z,100665.47
2023-01-11T20:04:43.073Z,100656.47
2023-01-11T20:07:11.734Z,100641.66
2023-01-11T20:09:38.865Z,100648.34
2023-01-11T20:12:07.552Z,100634.47
2023-01-11T20:14:35.060Z,100628.59
2023-01-11T20:17:02.210Z,100619.13
2023-01-11T20:19:28.996Z,100604.94
2023-01-11T20:21:56.041Z,100625.16
2023-01-11T20:24:28.462Z,100609.66
2023-01-11T20:27:00.024Z,100631.56
2023-01-11T20:29:27.114Z,100604.63
2023-01-11T20:31:54.033Z,100599.41
2023-01-11T20:34:20.909Z,100617.84
2023-01-11T20:36:48.936Z,100601.19
2023-01-11T20:39:16.013Z,100597.44
2023-01-11T20:41:48.899Z,100618.81
2023-01-11T20:44:25.135Z,100609.97
2023-01-11T20:46:53.189Z,100602.13
2023-01-11T20:49:23.327Z,100604.72
2023-01-11T20:51:50.366Z,100592.84
2023-01-11T20:54:17.526Z,100596.75
2023-01-11T20:56:47.049Z,100590.72
2023-01-11T20:59:17.516Z,100572.25
2023-01-11T21:01:44.232Z,100578.66
2023-01-11T21:09:33.047Z,100515.28
2023-01-11T21:11:59.716Z,100588.88
2023-01-11T21:14:26.388Z,100585.59
2023-01-11T21:16:55.423Z,100592.69
2023-01-11T21:19:22.887Z,100583.25
2023-01-11T21:21:49.918Z,100606.97
2023-01-11T21:24:16.964Z,100588.00
2023-01-11T21:26:45.762Z,100564.13
2023-01-11T21:29:13.499Z,100590.22
2023-01-11T21:31:41.060Z,100568.19
2023-01-11T21:34:10.199Z,100587.09
2023-01-11T21:36:36.916Z,100574.81
2023-01-11T21:39:04.627Z,100572.13
2023-01-11T21:41:51.818Z,100561.84
2023-01-11T21:44:19.844Z,100541.22
2023-01-11T21:46:48.480Z,100555.88
2023-01-11T21:49:15.381Z,100545.25
2023-01-11T21:51:43.035Z,100543.19
2023-01-11T21:54:12.073Z,100537.91
2023-01-11T21:56:39.136Z,100563.59
2023-01-11T21:59:05.906Z,100517.78
2023-01-11T22:01:32.613Z,100552.84
2023-01-11T22:03:59.782Z,100555.84
2023-01-11T22:06:26.559Z,100519.00
2023-01-11T22:08:53.386Z,100550.75
2023-01-11T22:11:20.034Z,100501.41
2023-01-11T22:13:46.752Z,100564.94
2023-01-11T22:16:16.222Z,100535.19
2023-01-11T22:18:43.987Z,100552.84
2023-01-11T22:21:17.286Z,100563.09
2023-01-11T22:23:45.385Z,100541.56
2023-01-11T22:26:17.243Z,100538.31
2023-01-11T22:29:06.289Z,100534.91
2023-01-11T22:31:34.009Z,100539.59
2023-01-11T22:34:00.896Z,100536.19
2023-01-11T22:36:28.999Z,100541.53
2023-01-11T22:38:56.100Z,100544.44
2023-01-11T22:41:24.435Z,100549.97
2023-01-11T22:43:51.599Z,100548.47
2023-01-11T22:46:21.349Z,100525.47
2023-01-11T22:48:48.918Z,100539.66
2023-01-11T22:51:20.078Z,100517.34
2023-01-11T22:53:48.764Z,100533.81
2023-01-11T22:56:21.449Z,100522.13
2023-01-11T22:58:50.539Z,100527.19
2023-01-11T23:01:28.216Z,100536.63
2023-01-11T23:03:56.311Z,100545.91
2023-01-11T23:06:31.981Z,100536.34
2023-01-11T23:08:59.266Z,100546.31
2023-01-11T23:11:47.496Z,100544.56
2023-01-11T23:14:16.715Z,100541.56
2023-01-11T23:16:44.811Z,100513.81
2023-01-11T23:19:13.189Z,100526.88
2023-01-11T23:21:42.026Z,100500.25
2023-01-11T23:24:10.499Z,100533.06
2023-01-11T23:26:37.668Z,100531.44
2023-01-11T23:29:05.257Z,100514.47
2023-01-11T23:31:32.211Z,100524.31
2023-01-11T23:34:00.950Z,100516.34
2023-01-11T23:36:31.555Z,100515.75
2023-01-11T23:38:58.717Z,100526.31
2023-01-11T23:41:44.256Z,100515.63
2023-01-11T23:44:14.262Z,100516.44
2023-01-11T23:47:00.337Z,100524.41
2023-01-11T23:49:27.493Z,100510.28
2023-01-11T23:51:55.158Z,100516.31
2023-01-11T23:54:22.744Z,100509.97
2023-01-11T23:56:49.367Z,100506.38
2023-01-11T23:59:15.995Z,100503.78
